createdAt,value
2018-10-09T00:00:21.448Z,2.60
2018-10-09T00:02:51.494Z,2.70
2018-10-09T00:05:25.003Z,2.70
2018-10-09T00:07:55.788Z,2.80
2018-10-09T00:10:25.799Z,2.47
2018-10-09T00:12:55.918Z,2.70
2018-10-09T00:15:27.013Z,3.00
2018-10-09T00:17:56.996Z,2.30
2018-10-09T00:20:28.751Z,3.00
2018-10-09T00:23:02.127Z,2.17
2018-10-09T00:25:33.792Z,2.57
2018-10-09T00:28:03.765Z,2.33
2018-10-09T00:30:33.661Z,2.90
2018-10-09T00:33:03.552Z,2.47
2018-10-09T00:35:33.381Z,2.60
2018-10-09T00:38:03.540Z,2.60
2018-10-09T00:40:33.796Z,2.50
2018-10-09T00:43:04.820Z,2.83
2018-10-09T00:45:34.732Z,2.60
2018-10-09T00:48:05.062Z,2.20
2018-10-09T00:50:35.080Z,2.37
2018-10-09T00:53:06.992Z,2.70
2018-10-09T00:55:36.895Z,2.60
2018-10-09T00:58:07.092Z,2.50
2018-10-09T01:00:37.245Z,2.63
2018-10-09T01:03:07.196Z,2.70
2018-10-09T01:05:37.006Z,2.80
2018-10-09T01:08:06.866Z,2.30
2018-10-09T01:10:36.943Z,2.43
2018-10-09T01:13:06.929Z,2.60
2018-10-09T01:15:36.981Z,2.57
2018-10-09T01:18:07.030Z,2.40
2018-10-09T01:20:36.943Z,2.53
2018-10-09T01:23:07.431Z,2.70
2018-10-09T01:25:37.749Z,2.80
2018-10-09T01:28:07.793Z,2.47
2018-10-09T01:30:38.282Z,2.40
2018-10-09T01:33:09.192Z,3.10
2018-10-09T01:35:39.372Z,2.20
2018-10-09T01:38:10.044Z,2.97
2018-10-09T01:40:39.978Z,2.50
2018-10-09T01:43:09.720Z,2.77
2018-10-09T01:45:39.812Z,2.20
2018-10-09T01:48:09.808Z,2.30
2018-10-09T01:50:39.566Z,2.83
2018-10-09T01:53:09.527Z,3.03
2018-10-09T01:55:39.640Z,3.07
2018-10-09T01:58:09.589Z,2.57
2018-10-09T02:00:39.320Z,3.10
2018-10-09T02:03:09.788Z,2.50
2018-10-09T02:05:39.729Z,2.97
2018-10-09T02:08:09.678Z,2.53
2018-10-09T02:10:39.656Z,3.33
2018-10-09T02:13:09.602Z,2.67
2018-10-09T02:15:39.665Z,2.90
2018-10-09T02:18:09.533Z,2.30
2018-10-09T02:20:39.667Z,2.50
2018-10-09T02:23:09.635Z,2.63
2018-10-09T02:25:40.229Z,2.70
2018-10-09T02:28:10.365Z,2.67
2018-10-09T02:30:40.663Z,2.50
2018-10-09T02:33:12.775Z,2.97
2018-10-09T02:35:42.390Z,2.47
2018-10-09T02:38:12.930Z,2.50
2018-10-09T02:40:43.118Z,2.57
2018-10-09T02:43:12.940Z,2.60
2018-10-09T02:45:43.002Z,2.77
2018-10-09T02:48:13.230Z,2.60
2018-10-09T02:50:43.655Z,2.80
2018-10-09T02:53:14.709Z,2.80
2018-10-09T02:55:44.599Z,2.63
2018-10-09T02:58:15.091Z,2.53
2018-10-09T03:00:45.043Z,3.00
2018-10-09T03:03:14.993Z,2.60
2018-10-09T03:05:45.249Z,2.63
2018-10-09T03:08:15.739Z,2.40
2018-10-09T03:10:46.536Z,2.83
2018-10-09T03:13:17.834Z,2.43
2018-10-09T03:15:47.842Z,2.60
2018-10-09T03:18:18.672Z,2.80
2018-10-09T03:20:48.792Z,2.60
2018-10-09T03:23:19.007Z,2.30
2018-10-09T03:25:48.933Z,2.90
2018-10-09T03:28:19.269Z,2.43
2018-10-09T03:30:49.714Z,2.90
2018-10-09T03:33:19.810Z,2.93
2018-10-09T03:35:51.429Z,2.33
2018-10-09T03:38:29.191Z,2.90
2018-10-09T03:40:59.557Z,2.80
2018-10-09T03:43:31.104Z,2.87
2018-10-09T03:46:01.588Z,3.30
2018-10-09T03:48:31.719Z,3.83
2018-10-09T03:51:02.703Z,3.07
2018-10-09T03:53:33.116Z,2.87
2018-10-09T03:56:03.395Z,3.30
2018-10-09T03:58:34.686Z,3.30
2018-10-09T04:01:05.666Z,3.53
2018-10-09T04:03:36.195Z,3.10
2018-10-09T04:06:08.300Z,3.60
2018-10-09T04:08:39.125Z,2.97
2018-10-09T04:11:10.025Z,3.80
2018-10-09T04:13:40.178Z,3.80
2018-10-09T04:16:11.995Z,3.10
2018-10-09T04:18:44.401Z,3.70
2018-10-09T04:21:14.612Z,3.80
2018-10-09T04:23:45.446Z,3.83
2018-10-09T04:26:15.729Z,4.20
2018-10-09T04:28:45.978Z,3.90
2018-10-09T04:31:16.089Z,3.30
2018-10-09T04:33:46.487Z,3.10
2018-10-09T04:36:16.718Z,3.50
2018-10-09T04:38:46.793Z,3.80
2018-10-09T04:41:17.731Z,4.37
2018-10-09T04:43:48.785Z,4.67
2018-10-09T04:46:18.965Z,4.33
2018-10-09T04:48:49.464Z,3.67
2018-10-09T04:51:19.627Z,4.10
2018-10-09T04:53:49.684Z,4.13
2018-10-09T04:56:19.891Z,3.77
2018-10-09T04:58:50.826Z,3.40
2018-10-09T05:01:23.111Z,5.00
2018-10-09T05:03:55.325Z,6.03
2018-10-09T05:06:25.978Z,5.63
2018-10-09T05:08:56.975Z,5.00
2018-10-09T05:11:28.269Z,4.83
2018-10-09T05:13:59.673Z,4.90
2018-10-09T05:16:29.793Z,5.30
2018-10-09T05:18:59.857Z,5.03
2018-10-09T05:21:31.652Z,5.00
2018-10-09T05:24:01.950Z,4.20
2018-10-09T05:26:32.876Z,4.83
2018-10-09T05:29:03.975Z,4.40
2018-10-09T05:31:34.520Z,4.57
2018-10-09T05:34:04.986Z,4.40
2018-10-09T05:36:36.458Z,4.43
2018-10-09T05:39:08.147Z,3.90
2018-10-09T05:41:38.799Z,4.43
2018-10-09T05:44:09.732Z,4.37
2018-10-09T05:46:41.714Z,5.10
2018-10-09T05:49:12.667Z,4.20
2018-10-09T05:51:43.392Z,4.20
2018-10-09T05:54:14.681Z,3.77
2018-10-09T05:56:44.630Z,4.40
2018-10-09T05:59:20.387Z,3.87
2018-10-09T06:01:51.763Z,4.30
2018-10-09T06:04:22.730Z,4.23
2018-10-09T06:06:53.040Z,4.10
2018-10-09T06:09:23.453Z,4.30
2018-10-09T06:11:53.742Z,5.10
2018-10-09T06:14:23.897Z,5.03
2018-10-09T06:16:54.174Z,5.00
2018-10-09T06:19:24.586Z,5.27
2018-10-09T06:21:54.804Z,5.10
2018-10-09T06:24:25.035Z,5.37
2018-10-09T06:26:55.517Z,4.63
2018-10-09T06:29:26.614Z,5.27
2018-10-09T06:31:57.510Z,6.17
2018-10-09T06:34:27.907Z,5.87
2018-10-09T06:36:58.038Z,4.90
2018-10-09T06:39:28.264Z,5.50
2018-10-09T06:41:58.485Z,6.50
2018-10-09T06:44:28.849Z,4.70
2018-10-09T06:46:59.135Z,4.60
2018-10-09T06:49:29.277Z,4.87
2018-10-09T06:51:59.583Z,5.97
2018-10-09T06:54:30.260Z,5.57
2018-10-09T06:57:00.703Z,4.70
2018-10-09T06:59:33.288Z,4.50
2018-10-09T07:02:04.032Z,4.40
2018-10-09T07:04:34.694Z,4.80
2018-10-09T07:07:04.831Z,4.10
2018-10-09T07:09:34.898Z,4.03
2018-10-09T07:12:05.291Z,4.30
2018-10-09T07:14:37.072Z,3.77
2018-10-09T07:17:07.333Z,4.93
2018-10-09T07:19:37.695Z,3.90
2018-10-09T07:22:08.135Z,4.27
2018-10-09T07:24:38.485Z,4.03
2018-10-09T07:27:08.978Z,4.20
2018-10-09T07:29:39.334Z,4.90
2018-10-09T07:32:10.816Z,4.77
2018-10-09T07:34:41.040Z,4.07
2018-10-09T07:37:11.273Z,4.07
2018-10-09T07:39:41.321Z,4.10
2018-10-09T07:42:11.863Z,4.33
2018-10-09T07:44:44.156Z,4.10
2018-10-09T07:47:14.735Z,4.47
2018-10-09T07:49:45.644Z,4.60
2018-10-09T07:52:15.615Z,3.70
2018-10-09T07:54:45.404Z,5.00
2018-10-09T07:57:15.101Z,4.40
2018-10-09T07:59:44.826Z,4.50
2018-10-09T08:02:14.602Z,4.00
2018-10-09T08:04:45.355Z,4.37
2018-10-09T08:07:15.215Z,4.13
2018-10-09T08:09:45.218Z,4.20
2018-10-09T08:12:15.045Z,4.30
2018-10-09T08:14:44.775Z,3.80
2018-10-09T08:17:14.599Z,3.60
2018-10-09T08:19:45.577Z,4.20
2018-10-09T08:22:15.817Z,3.77
2018-10-09T08:24:46.511Z,4.20
2018-10-09T08:27:17.196Z,4.20
2018-10-09T08:29:46.964Z,4.30
2018-10-09T08:32:16.862Z,4.73
2018-10-09T08:34:46.823Z,4.53
2018-10-09T08:37:16.627Z,4.60
2018-10-09T08:39:46.453Z,4.80
2018-10-09T08:42:17.011Z,4.60
2018-10-09T08:44:47.013Z,5.10
2018-10-09T08:47:16.703Z,5.70
2018-10-09T08:49:46.552Z,4.50
2018-10-09T08:52:16.345Z,4.27
2018-10-09T08:54:46.058Z,4.90
2018-10-09T08:57:16.461Z,4.10
2018-10-09T08:59:50.090Z,4.47
2018-10-09T09:02:19.996Z,4.43
2018-10-09T09:04:49.743Z,4.60
2018-10-09T09:07:19.507Z,4.30
2018-10-09T09:09:49.252Z,4.80
2018-10-09T09:12:19.021Z,4.87
2018-10-09T09:14:49.592Z,4.20
2018-10-09T09:17:19.361Z,4.67
2018-10-09T09:19:49.044Z,4.83
2018-10-09T09:22:18.932Z,4.00
2018-10-09T09:24:49.376Z,4.53
2018-10-09T09:27:19.286Z,4.47
2018-10-09T09:29:49.631Z,4.60
2018-10-09T09:32:19.533Z,4.70
2018-10-09T09:34:50.720Z,5.13
2018-10-09T09:37:20.856Z,5.40
2018-10-09T09:39:50.741Z,6.00
2018-10-09T09:42:20.757Z,4.60
2018-10-09T09:44:50.477Z,4.93
2018-10-09T09:47:20.320Z,4.50
2018-10-09T09:49:51.394Z,4.97
2018-10-09T09:52:21.537Z,5.50
2018-10-09T09:54:52.241Z,5.40
2018-10-09T09:57:23.670Z,5.13
2018-10-09T09:59:53.706Z,5.37
2018-10-09T10:02:23.804Z,7.73
2018-10-09T10:04:54.274Z,4.27
2018-10-09T10:07:24.813Z,5.23
2018-10-09T10:09:55.105Z,4.73
2018-10-09T10:12:25.800Z,5.00
2018-10-09T10:14:57.774Z,4.97
2018-10-09T10:17:27.574Z,5.00
2018-10-09T10:19:57.244Z,5.03
2018-10-09T10:22:27.539Z,4.70
2018-10-09T10:24:57.328Z,5.23
2018-10-09T10:27:27.093Z,5.77
2018-10-09T10:29:57.139Z,5.57
2018-10-09T10:32:27.023Z,5.20
2018-10-09T10:34:57.464Z,5.07
2018-10-09T10:37:27.577Z,5.33
2018-10-09T10:39:57.454Z,5.33
2018-10-09T10:42:27.156Z,5.50
2018-10-09T10:44:56.919Z,5.30
2018-10-09T10:47:26.763Z,5.73
2018-10-09T10:49:58.053Z,7.50
2018-10-09T10:52:28.477Z,6.43
2018-10-09T10:54:59.743Z,6.33
2018-10-09T10:57:29.908Z,6.27
2018-10-09T11:00:00.111Z,6.37
2018-10-09T11:02:30.257Z,5.23
2018-10-09T11:05:00.501Z,5.00
2018-10-09T11:07:31.172Z,5.37
2018-10-09T11:10:01.525Z,6.00
2018-10-09T11:12:32.172Z,5.70
2018-10-09T11:15:02.732Z,5.60
2018-10-09T11:17:33.550Z,5.50
2018-10-09T11:20:04.645Z,6.30
2018-10-09T11:22:36.592Z,6.43
2018-10-09T11:25:07.635Z,5.17
2018-10-09T11:27:37.614Z,5.47
2018-10-09T11:30:07.944Z,5.27
2018-10-09T11:32:38.640Z,5.50
2018-10-09T11:35:08.735Z,5.60
2018-10-09T11:37:38.494Z,5.93
2018-10-09T11:40:08.280Z,5.80
2018-10-09T11:42:38.040Z,5.70
2018-10-09T11:45:07.969Z,5.63
2018-10-09T11:47:37.934Z,6.23
2018-10-09T11:50:09.083Z,6.23
2018-10-09T11:52:38.834Z,6.10
2018-10-09T11:55:08.993Z,6.03
2018-10-09T11:57:40.918Z,6.47
2018-10-09T12:00:10.866Z,5.60
2018-10-09T12:02:41.166Z,5.90
2018-10-09T12:05:10.919Z,6.40
2018-10-09T12:07:41.263Z,5.53
2018-10-09T12:10:11.036Z,6.30
2018-10-09T12:12:41.088Z,6.53
2018-10-09T12:15:10.915Z,6.10
2018-10-09T12:17:40.599Z,5.50
2018-10-09T12:20:10.536Z,6.23
2018-10-09T12:22:40.307Z,7.03
2018-10-09T12:25:11.798Z,5.90
2018-10-09T12:27:41.663Z,6.60
2018-10-09T12:30:11.451Z,7.17
2018-10-09T12:32:41.574Z,5.73
2018-10-09T12:35:12.571Z,6.00
2018-10-09T12:37:42.410Z,6.00
2018-10-09T12:40:12.848Z,5.70
2018-10-09T12:42:43.128Z,7.13
2018-10-09T12:45:12.780Z,5.90
2018-10-09T12:47:42.536Z,5.70
2018-10-09T12:50:15.701Z,6.00
2018-10-09T12:52:45.753Z,6.40
2018-10-09T12:55:16.898Z,5.77
2018-10-09T12:57:47.397Z,6.00
2018-10-09T13:00:19.527Z,6.07
2018-10-09T13:02:50.794Z,6.33
2018-10-09T13:05:21.723Z,5.87
2018-10-09T13:07:52.047Z,6.60
2018-10-09T13:10:22.345Z,5.87
2018-10-09T13:12:54.055Z,6.30
2018-10-09T13:15:24.245Z,6.50
2018-10-09T13:17:55.233Z,6.83
2018-10-09T13:20:27.186Z,6.63
2018-10-09T13:22:58.986Z,6.67
2018-10-09T13:25:30.176Z,6.40
2018-10-09T13:27:59.955Z,6.03
2018-10-09T13:30:29.770Z,6.20
2018-10-09T13:32:59.639Z,5.87
2018-10-09T13:35:29.539Z,6.40
2018-10-09T13:37:59.381Z,5.53
2018-10-09T13:40:29.175Z,6.23
2018-10-09T13:42:59.196Z,6.30
2018-10-09T13:45:30.010Z,6.20
2018-10-09T13:48:06.422Z,6.70
2018-10-09T13:50:39.073Z,6.37
2018-10-09T13:53:09.184Z,5.97
2018-10-09T13:55:41.193Z,7.40
2018-10-09T13:58:11.765Z,6.10
2018-10-09T14:00:42.001Z,5.50
2018-10-09T14:03:12.788Z,7.67
2018-10-09T14:05:43.292Z,5.90
2018-10-09T14:08:13.558Z,6.97
2018-10-09T14:10:44.006Z,6.67
2018-10-09T14:13:13.957Z,6.40
2018-10-09T14:15:44.045Z,5.80
2018-10-09T14:18:14.757Z,5.80
2018-10-09T14:20:45.044Z,5.70
2018-10-09T14:23:14.795Z,6.10
2018-10-09T14:25:45.047Z,6.10
2018-10-09T14:28:14.836Z,5.23
2018-10-09T14:30:44.731Z,5.67
2018-10-09T14:33:15.400Z,7.10
2018-10-09T14:35:45.436Z,8.50
2018-10-09T14:38:15.612Z,7.30
2018-10-09T14:40:46.802Z,8.50
2018-10-09T14:43:16.551Z,9.63
2018-10-09T14:45:46.801Z,9.33
2018-10-09T14:48:17.021Z,7.97
2018-10-09T14:50:49.045Z,7.27
2018-10-09T14:53:19.345Z,7.03
2018-10-09T14:55:49.393Z,8.03
2018-10-09T14:58:20.651Z,6.67
2018-10-09T15:00:50.716Z,7.23
2018-10-09T15:03:20.974Z,7.27
2018-10-09T15:05:51.464Z,7.87
2018-10-09T15:08:21.850Z,7.70
2018-10-09T15:10:51.809Z,8.60
2018-10-09T15:13:21.490Z,8.33
2018-10-09T15:15:51.728Z,7.40
2018-10-09T15:18:21.482Z,7.40
2018-10-09T15:20:52.111Z,7.53
2018-10-09T15:23:22.283Z,7.60
2018-10-09T15:25:52.518Z,7.03
2018-10-09T15:28:22.193Z,7.33
2018-10-09T15:30:52.002Z,6.70
2018-10-09T15:33:21.773Z,6.20
2018-10-09T15:35:51.824Z,6.10
2018-10-09T15:38:22.568Z,6.37
2018-10-09T15:40:52.408Z,6.00
2018-10-09T15:43:23.541Z,6.20
2018-10-09T15:45:53.387Z,5.67
2018-10-09T15:48:24.356Z,4.97
2018-10-09T15:50:54.331Z,5.00
2018-10-09T15:53:24.113Z,5.23
2018-10-09T15:55:53.828Z,5.23
2018-10-09T15:58:23.773Z,4.83
2018-10-09T16:00:53.602Z,5.17
2018-10-09T16:03:23.431Z,4.83
2018-10-09T16:05:54.473Z,5.30
2018-10-09T16:08:24.351Z,6.80
2018-10-09T16:10:54.335Z,6.00
2018-10-09T16:13:24.108Z,5.67
2018-10-09T16:15:53.888Z,7.17
2018-10-09T16:18:24.703Z,7.80
2018-10-09T16:20:56.812Z,8.13
2018-10-09T16:23:27.982Z,8.37
2018-10-09T16:25:59.731Z,7.10
2018-10-09T16:28:29.814Z,6.50
2018-10-09T16:31:00.749Z,6.40
2018-10-09T16:33:30.485Z,6.07
2018-10-09T16:36:00.612Z,6.00
2018-10-09T16:38:33.614Z,5.30
2018-10-09T16:41:04.675Z,6.60
2018-10-09T16:43:34.628Z,5.63
2018-10-09T16:46:04.913Z,6.30
2018-10-09T16:48:36.102Z,7.93
2018-10-09T16:51:07.475Z,7.80
2018-10-09T16:53:37.863Z,6.27
2018-10-09T16:56:08.388Z,7.10
2018-10-09T16:58:40.768Z,7.20
2018-10-09T17:01:11.097Z,7.40
2018-10-09T17:03:41.373Z,7.00
2018-10-09T17:06:11.746Z,7.63
2018-10-09T17:08:47.576Z,7.50
2018-10-09T17:11:19.371Z,7.00
2018-10-09T17:13:49.751Z,7.50
2018-10-09T17:16:19.856Z,8.00
2018-10-09T17:18:49.610Z,6.90
2018-10-09T17:21:21.047Z,6.97
2018-10-09T17:23:56.246Z,7.03
2018-10-09T17:26:27.705Z,6.37
2018-10-09T17:28:58.358Z,6.40
2018-10-09T17:31:28.243Z,7.27
2018-10-09T17:33:58.681Z,6.83
2018-10-09T17:36:30.865Z,6.50
2018-10-09T17:39:00.936Z,6.93
2018-10-09T17:41:31.897Z,5.97
2018-10-09T17:44:01.986Z,8.37
2018-10-09T17:46:32.196Z,6.87
2018-10-09T17:49:02.360Z,6.17
2018-10-09T17:51:32.090Z,6.40
2018-10-09T17:54:02.561Z,6.70
2018-10-09T17:56:33.631Z,6.67
2018-10-09T17:59:03.812Z,6.50
2018-10-09T18:01:33.655Z,6.93
2018-10-09T18:04:04.282Z,6.20
2018-10-09T18:06:34.185Z,6.17
2018-10-09T18:09:05.507Z,6.80
2018-10-09T18:11:35.420Z,6.23
2018-10-09T18:14:05.990Z,6.67
2018-10-09T18:16:35.757Z,7.23
2018-10-09T18:19:07.400Z,6.63
2018-10-09T18:21:37.707Z,7.13
2018-10-09T18:24:11.526Z,6.80
2018-10-09T18:26:42.802Z,7.57
2018-10-09T18:29:13.666Z,7.20
2018-10-09T18:31:45.066Z,7.10
2018-10-09T18:34:17.001Z,7.50
2018-10-09T18:36:48.230Z,7.60
2018-10-09T18:39:18.574Z,6.50
2018-10-09T18:41:49.493Z,7.47
2018-10-09T18:44:21.530Z,7.40
2018-10-09T18:46:51.313Z,7.30
2018-10-09T18:49:21.845Z,7.63
2018-10-09T18:51:51.738Z,8.07
2018-10-09T18:54:21.669Z,7.50
2018-10-09T18:56:51.463Z,7.87
2018-10-09T18:59:21.940Z,7.47
2018-10-09T19:01:51.654Z,7.30
2018-10-09T19:04:21.387Z,7.80
2018-10-09T19:06:51.188Z,7.37
2018-10-09T19:09:20.958Z,7.47
2018-10-09T19:11:50.727Z,8.00
2018-10-09T19:14:20.573Z,7.37
2018-10-09T19:16:50.463Z,8.10
2018-10-09T19:19:20.963Z,7.73
2018-10-09T19:21:51.514Z,8.30
2018-10-09T19:24:31.382Z,8.23
2018-10-09T19:27:01.609Z,8.53
2018-10-09T19:29:31.517Z,8.90
2018-10-09T19:32:01.195Z,9.37
2018-10-09T19:34:34.935Z,8.30
2018-10-09T19:37:06.087Z,8.57
2018-10-09T19:39:37.651Z,9.50
2018-10-09T19:42:08.363Z,8.13
2018-10-09T19:44:38.217Z,8.60
2018-10-09T19:47:08.081Z,8.10
2018-10-09T19:49:37.845Z,9.57
2018-10-09T19:52:10.987Z,8.10
2018-10-09T19:54:40.790Z,8.63
2018-10-09T19:57:11.658Z,9.53
2018-10-09T19:59:41.691Z,9.07
2018-10-09T20:02:12.694Z,8.97
2018-10-09T20:04:43.651Z,9.50
2018-10-09T20:07:15.949Z,9.10
2018-10-09T20:09:46.106Z,10.43
2018-10-09T20:12:15.891Z,10.40
2018-10-09T20:14:46.901Z,10.07
2018-10-09T20:17:17.589Z,10.30
2018-10-09T20:19:47.648Z,10.13
2018-10-09T20:22:17.725Z,9.70
2018-10-09T20:24:47.464Z,9.30
2018-10-09T20:27:17.490Z,8.90
2018-10-09T20:29:47.866Z,9.50
2018-10-09T20:32:18.098Z,8.10
2018-10-09T20:34:48.774Z,9.30
2018-10-09T20:37:18.909Z,9.07
2018-10-09T20:39:50.070Z,9.70
2018-10-09T20:42:20.598Z,9.00
2018-10-09T20:44:51.004Z,9.60
2018-10-09T20:47:26.041Z,9.70
2018-10-09T20:49:57.138Z,9.40
2018-10-09T20:52:28.253Z,9.53
2018-10-09T20:54:58.002Z,8.87
2018-10-09T20:57:28.197Z,8.27
2018-10-09T20:59:58.183Z,8.60
2018-10-09T21:02:28.364Z,8.60
2018-10-09T21:04:58.948Z,9.10
2018-10-09T21:07:30.749Z,8.63
2018-10-09T21:10:01.247Z,7.73
2018-10-09T21:12:32.313Z,8.60
2018-10-09T21:15:04.642Z,8.43
2018-10-09T21:17:35.352Z,8.53
2018-10-09T21:20:05.635Z,8.73
2018-10-09T21:22:35.588Z,8.07
2018-10-09T21:25:08.946Z,8.50
2018-10-09T21:27:38.776Z,8.67
2018-10-09T21:30:08.888Z,9.40
2018-10-09T21:32:39.362Z,8.80
2018-10-09T21:35:09.356Z,9.93
2018-10-09T21:37:39.195Z,7.97
2018-10-09T21:40:09.100Z,9.50
2018-10-09T21:42:38.896Z,8.80
2018-10-09T21:45:10.014Z,9.70
2018-10-09T21:47:43.823Z,8.80
2018-10-09T21:50:13.727Z,8.80
2018-10-09T21:52:43.400Z,9.33
2018-10-09T21:55:13.526Z,9.77
2018-10-09T21:57:43.560Z,10.23
2018-10-09T22:00:14.362Z,9.37
2018-10-09T22:02:44.280Z,9.63
2018-10-09T22:05:14.440Z,9.67
2018-10-09T22:07:44.182Z,9.70
2018-10-09T22:10:13.851Z,9.93
2018-10-09T22:12:43.608Z,9.03
2018-10-09T22:15:13.498Z,9.20
2018-10-09T22:17:43.199Z,9.00
2018-10-09T22:20:12.974Z,9.43
2018-10-09T22:22:42.809Z,10.40
2018-10-09T22:25:12.658Z,9.73
2018-10-09T22:27:42.936Z,9.00
2018-10-09T22:30:12.816Z,9.30
2018-10-09T22:32:42.822Z,8.13
2018-10-09T22:35:12.765Z,9.43
2018-10-09T22:37:42.569Z,9.70
2018-10-09T22:40:12.446Z,9.77
2018-10-09T22:42:42.277Z,9.03
2018-10-09T22:45:12.126Z,9.83
2018-10-09T22:47:42.219Z,8.90
2018-10-09T22:50:12.495Z,9.47
2018-10-09T22:52:44.035Z,9.37
2018-10-09T22:55:14.016Z,8.80
2018-10-09T22:57:43.831Z,9.20
2018-10-09T23:00:14.072Z,8.43
2018-10-09T23:02:46.140Z,9.70
2018-10-09T23:05:17.191Z,9.13
2018-10-09T23:07:47.292Z,10.07
2018-10-09T23:10:17.496Z,8.90
2018-10-09T23:12:47.699Z,9.87
2018-10-09T23:15:18.835Z,8.53
2018-10-09T23:17:49.212Z,9.70
2018-10-09T23:20:20.729Z,8.63
2018-10-09T23:22:50.724Z,8.83
2018-10-09T23:25:21.159Z,9.67
2018-10-09T23:27:51.714Z,9.57
2018-10-09T23:30:22.090Z,9.53
2018-10-09T23:32:52.705Z,9.80
2018-10-09T23:35:24.460Z,8.67
2018-10-09T23:37:54.700Z,9.53
2018-10-09T23:40:24.883Z,9.37
2018-10-09T23:42:55.119Z,9.27
2018-10-09T23:45:25.727Z,10.20
2018-10-09T23:48:01.903Z,9.60
2018-10-09T23:50:33.024Z,9.17
2018-10-09T23:53:03.463Z,9.10
2018-10-09T23:55:35.288Z,9.70
2018-10-09T23:58:05.558Z,9.37
